Terminal Aerodrome Forecast
Issued by NWS

Home | Current Version | Previous Version | Text Only | Print | Product List | Glossary On
Versions: 1 2 3 4 5 6 7 8 9 10 11 12
000
FTAK31 PAFA 271726
TAFABT
TAF
PABT 271726Z 2718/2818 VRB03KT P6SM FEW030 BKN250
     FM272200 33005KT P6SM SCT250
     FM280200 VRB03KT P6SM SKC=

USA.gov is the U.S. government's official web portal to all federal, state and local government web resources and services.